Time;durP1;ratioP1;P1;durP2;ratioP2;P2;SDS_P1;SDS_P2;PMS_P1;PMS_P2;Temp;Humidity;BMP_temperature;BMP_pressure;BME280_temperature;BME280_humidity;BME280_pressure;Samples;Min_cycle;Max_cycle;Signal;HPM_P1;HPM_P2
2021/08/16 00:00:44;;;;;;;;;;;;;;;;;;;;;
2021/08/16 00:13:31;;;;;;;;;2.50;2.00;;;;;21.98;51.80;101110.47;4951881;28;47495;-80
2021/08/16 00:16:27;;;;;;;;;;;;;;;;;;;;;
2021/08/16 00:18:53;;;;;;;;;6.33;3.67;;;;;21.91;51.77;101100.97;4945134;28;68773;-80
2021/08/16 00:21:19;;;;;;;;;4.67;3.67;;;;;21.96;51.57;101104.31;4926262;28;45569;-80
2021/08/16 00:23:44;;;;;;;;;5.25;4.75;;;;;21.94;51.79;101099.00;4943108;28;46563;-80
2021/08/16 00:26:10;;;;;;;;;3.00;3.00;;;;;21.94;51.28;101090.94;4942852;28;45473;-80
2021/08/16 00:28:36;;;;;;;;;2.67;2.67;;;;;21.90;51.08;101094.72;4932138;28;45301;-80
2021/08/16 00:31:01;;;;;;;;;2.33;2.33;;;;;21.89;51.18;101102.81;4963168;28;45451;-80
2021/08/16 00:33:29;;;;;;;;;1.00;1.00;;;;;21.83;51.03;101095.06;4963542;28;45493;-80
2021/08/16 00:35:54;;;;;;;;;2.33;2.33;;;;;21.73;51.08;101099.97;4933051;28;45758;-80
2021/08/16 00:38:22;;;;;;;;;2.00;2.00;;;;;21.66;50.98;101095.84;4958116;28;45240;-80
2021/08/16 00:44:35;;;;;;;;;;;;;;;;;;;;;
2021/08/16 00:53:45;;;;;;;;;;;;;;;;;;;;;
2021/08/16 01:03:40;;;;;;;;;;;;;;;;;;;;;
2021/08/16 02:10:06;;;;;;;;;3.00;1.33;;;;;21.19;51.54;101099.59;6190920;21;3611713;-83
2021/08/16 02:12:32;;;;;;;;;3.00;3.00;;;;;21.18;51.37;101095.19;6315478;22;45686;-82
2021/08/16 02:15:24;;;;;;;;;3.00;3.00;;;;;21.21;51.48;101102.22;6315802;22;47744;-82
2021/08/16 04:02:14;;;;;;;;;3.00;3.00;;;;;20.64;54.29;101085.81;6079614;23;45219;-83
2021/08/16 04:29:25;;;;;;;;;;;;;;;;;;;;;
2021/08/16 05:56:45;;;;;;;;;2.00;2.00;;;;;19.82;56.16;101150.34;5872168;23;45547;-83
2021/08/16 06:05:31;;;;;;;;;1.25;1.25;;;;;19.89;55.85;101156.34;5977453;23;45529;-83
2021/08/16 06:08:42;;;;;;;;;2.75;2.00;;;;;19.85;55.70;101152.03;6053773;23;46223;-87
2021/08/16 06:11:54;;;;;;;;;4.25;2.75;;;;;19.87;55.94;101160.00;6054589;23;45426;-84
2021/08/16 06:13:57;;;;;;;;;2.00;2.00;;;;;19.96;55.76;101160.53;6068712;23;45412;-85
2021/08/16 06:17:29;;;;;;;;;;;;;;;;;;;;;
2021/08/16 06:34:11;;;;;;;;;;;;;;;;;;;;;
2021/08/16 06:36:39;;;;;;;;;4.00;3.00;;;;;20.18;55.95;101184.72;6002392;23;72757;-78
2021/08/16 06:39:18;;;;;;;;;1.67;1.67;;;;;20.20;55.49;101176.59;6202092;22;45423;-81
2021/08/16 06:41:44;;;;;;;;;3.00;2.00;;;;;20.24;55.98;101172.91;6307779;22;45427;-77
2021/08/16 06:44:10;;;;;;;;;4.00;3.00;;;;;20.24;55.50;101173.78;6294490;22;46921;-77
2021/08/16 06:46:35;;;;;;;;;1.50;1.50;;;;;20.25;55.60;101172.84;6308338;22;45273;-76
2021/08/16 06:49:00;;;;;;;;;2.67;2.67;;;;;20.30;55.92;101183.38;6307888;22;45160;-77
2021/08/16 06:51:26;;;;;;;;;2.67;2.67;;;;;20.36;55.53;101184.94;6307730;22;45156;-76
2021/08/16 06:53:51;;;;;;;;;2.00;2.00;;;;;20.34;55.96;101189.47;6339586;22;46219;-76
2021/08/16 06:56:16;;;;;;;;;4.00;2.00;;;;;20.37;55.74;101194.69;6310699;22;45159;-76
2021/08/16 06:58:42;;;;;;;;;3.00;2.00;;;;;20.33;55.42;101174.34;6311318;22;45229;-77
2021/08/16 07:01:07;;;;;;;;;2.00;2.00;;;;;20.34;55.75;101177.00;6309690;22;45392;-76
2021/08/16 07:03:32;;;;;;;;;2.00;1.00;;;;;20.36;56.05;101183.13;6309521;22;45278;-75
2021/08/16 07:05:58;;;;;;;;;2.67;1.00;;;;;20.43;56.35;101187.31;6307058;22;45166;-78
2021/08/16 07:08:23;;;;;;;;;2.00;2.00;;;;;20.45;56.20;101201.53;6307664;22;45380;-75
2021/08/16 07:10:49;;;;;;;;;2.00;1.25;;;;;20.43;56.33;101202.50;6307131;22;45341;-75
2021/08/16 07:13:15;;;;;;;;;1.33;1.33;;;;;20.42;56.08;101211.44;6310802;22;45291;-76
2021/08/16 07:15:40;;;;;;;;;3.25;2.75;;;;;20.40;56.66;101205.31;6309886;22;45363;-77
2021/08/16 07:18:06;;;;;;;;;2.00;2.00;;;;;20.44;56.51;101206.91;6309583;22;45822;-77
2021/08/16 07:20:32;;;;;;;;;3.00;1.00;;;;;20.39;56.48;101206.22;6309180;22;45392;-79
2021/08/16 07:22:57;;;;;;;;;2.00;2.00;;;;;20.43;56.60;101210.53;6307869;22;45361;-77
2021/08/16 07:25:26;;;;;;;;;1.33;1.00;;;;;20.44;56.48;101218.47;6307420;22;45467;-78
2021/08/16 07:27:51;;;;;;;;;1.00;1.00;;;;;20.41;56.26;101201.69;6307990;22;45129;-78
2021/08/16 07:30:16;;;;;;;;;2.00;2.00;;;;;20.42;56.56;101209.66;6309675;22;45205;-78
2021/08/16 07:32:42;;;;;;;;;3.25;2.25;;;;;20.46;56.85;101218.44;6307193;22;48089;-79
2021/08/16 07:35:08;;;;;;;;;1.00;1.00;;;;;20.40;57.45;101208.84;6307168;22;45239;-81
2021/08/16 07:37:34;;;;;;;;;5.00;1.33;;;;;20.43;57.71;101218.56;6309158;22;45425;-79
2021/08/16 07:39:59;;;;;;;;;0.67;0.67;;;;;20.38;57.86;101215.19;6310571;22;45347;-80
2021/08/16 07:42:26;;;;;;;;;2.00;2.00;;;;;20.30;59.53;101212.78;6307132;22;46493;-79
2021/08/16 07:44:54;;;;;;;;;2.00;1.00;;;;;20.36;58.19;101225.06;6306847;22;45391;-77
2021/08/16 07:47:20;;;;;;;;;1.00;1.00;;;;;20.36;58.24;101227.72;6308309;22;45254;-77
2021/08/16 07:49:45;;;;;;;;;3.00;1.33;;;;;20.39;58.37;101214.25;6306953;22;45179;-78
2021/08/16 07:52:11;;;;;;;;;1.00;1.00;;;;;20.47;58.57;101220.16;6308959;22;46530;-78
2021/08/16 07:54:36;;;;;;;;;3.00;1.00;;;;;20.53;58.35;101216.38;6307280;22;45177;-78
2021/08/16 07:57:02;;;;;;;;;1.00;1.00;;;;;20.57;58.01;101218.94;6309227;22;45945;-78
2021/08/16 07:59:27;;;;;;;;;1.67;1.67;;;;;20.63;57.91;101218.69;6309470;22;45207;-78
2021/08/16 08:01:53;;;;;;;;;2.33;1.67;;;;;20.74;57.72;101220.09;6306853;22;47745;-78
2021/08/16 08:04:18;;;;;;;;;2.33;2.00;;;;;20.82;58.03;101221.56;6308419;22;45487;-78
2021/08/16 08:06:44;;;;;;;;;1.00;1.00;;;;;20.89;57.63;101209.66;6308334;22;45239;-78
2021/08/16 08:09:10;;;;;;;;;1.67;0.67;;;;;21.00;57.26;101216.41;6310701;22;45392;-78
2021/08/16 08:11:35;;;;;;;;;2.00;0.67;;;;;21.07;56.99;101210.75;6310067;22;45904;-77
2021/08/16 08:14:00;;;;;;;;;1.67;1.67;;;;;21.07;56.82;101202.72;6334303;22;45262;-77
2021/08/16 08:16:26;;;;;;;;;1.00;1.00;;;;;21.11;56.86;101211.50;6307774;22;45788;-78
2021/08/16 08:18:51;;;;;;;;;1.00;1.00;;;;;21.13;56.47;101223.88;6308391;22;45308;-77
2021/08/16 08:21:17;;;;;;;;;2.33;1.67;;;;;21.07;57.04;101224.13;6309746;22;45376;-77
2021/08/16 08:23:43;;;;;;;;;1.75;1.25;;;;;21.07;56.72;101229.50;6307719;22;45334;-77
2021/08/16 08:26:08;;;;;;;;;3.00;2.00;;;;;21.07;57.31;101228.63;6308366;22;45346;-77
2021/08/16 08:28:33;;;;;;;;;1.67;1.00;;;;;21.07;56.99;101234.84;6310240;22;45231;-77
2021/08/16 08:30:59;;;;;;;;;2.00;1.00;;;;;21.06;57.07;101233.13;6307670;22;45219;-78
2021/08/16 08:33:24;;;;;;;;;0.00;0.00;;;;;21.05;56.88;101242.06;6310442;22;45278;-77
2021/08/16 08:35:51;;;;;;;;;2.00;1.00;;;;;21.06;57.56;101242.94;6307775;22;45206;-77
2021/08/16 08:38:17;;;;;;;;;1.33;1.33;;;;;21.05;57.53;101242.06;6334790;22;45564;-77
2021/08/16 08:40:44;;;;;;;;;1.00;1.00;;;;;21.03;56.98;101230.53;6334569;22;46904;-77
2021/08/16 08:43:12;;;;;;;;;0.67;0.67;;;;;21.15;57.34;101247.94;6315109;22;45390;-77
2021/08/16 08:45:39;;;;;;;;;0.00;0.00;;;;;21.19;57.09;101244.19;6341323;22;45321;-77
2021/08/16 08:48:05;;;;;;;;;1.00;0.67;;;;;21.16;57.10;101244.31;6341488;22;45388;-77
2021/08/16 08:50:31;;;;;;;;;1.67;0.00;;;;;21.12;57.30;101240.91;6312701;22;46915;-77
2021/08/16 08:53:02;;;;;;;;;2.00;2.00;;;;;21.12;56.86;101245.38;6313006;22;45219;-77
2021/08/16 08:55:30;;;;;;;;;1.00;1.00;;;;;21.16;57.02;101257.69;6341498;22;45356;-78
2021/08/16 08:57:58;;;;;;;;;2.00;1.33;;;;;21.11;57.36;101248.97;6341418;22;45227;-77
2021/08/16 09:00:23;;;;;;;;;0.00;0.00;;;;;21.09;57.52;101254.41;6313335;22;47102;-78
2021/08/16 09:03:00;;;;;;;;;0.67;0.67;;;;;21.12;57.63;101259.63;6312753;22;45345;-77
2021/08/16 09:05:26;;;;;;;;;1.00;1.00;;;;;21.14;57.83;101257.78;6341442;22;45203;-77
2021/08/16 09:07:57;;;;;;;;;0.67;0.67;;;;;21.13;57.70;101268.53;6338963;22;45480;-77
2021/08/16 09:10:25;;;;;;;;;1.33;1.33;;;;;21.10;57.94;101274.03;6341133;22;45229;-77
2021/08/16 09:12:56;;;;;;;;;1.00;1.00;;;;;21.08;58.27;101278.56;6312655;22;45388;-77
2021/08/16 09:15:23;;;;;;;;;1.00;1.00;;;;;21.04;59.27;101282.31;6312810;22;45201;-77
2021/08/16 09:17:49;;;;;;;;;1.00;1.00;;;;;21.04;58.63;101280.50;6341023;22;45439;-77
2021/08/16 09:20:17;;;;;;;;;3.00;1.00;;;;;21.10;59.42;101288.28;6340894;22;46678;-77
2021/08/16 09:22:46;;;;;;;;;0.67;0.67;;;;;21.12;59.60;101266.81;6312960;22;45197;-77
2021/08/16 09:25:13;;;;;;;;;2.67;1.00;;;;;21.27;59.62;101274.22;6312886;22;45243;-77
2021/08/16 09:27:46;;;;;;;;;2.00;1.00;;;;;21.46;59.56;101268.16;6287069;22;45593;-78
2021/08/16 09:30:16;;;;;;;;;0.67;0.67;;;;;21.62;58.90;101277.31;6340769;22;45444;-78
2021/08/16 09:32:43;;;;;;;;;1.00;1.00;;;;;21.78;58.76;101278.44;6340688;22;45314;-76
2021/08/16 09:35:12;;;;;;;;;2.00;1.00;;;;;21.88;58.48;101276.22;6340933;22;45170;-79
2021/08/16 09:37:40;;;;;;;;;0.67;0.67;;;;;21.98;58.00;101266.84;6340880;22;45390;-77
2021/08/16 09:40:10;;;;;;;;;1.00;1.00;;;;;22.15;57.72;101278.66;6311516;22;47102;-76
2021/08/16 09:42:47;;;;;;;;;3.00;1.33;;;;;22.25;56.76;101280.03;6340444;22;45176;-76
2021/08/16 09:45:25;;;;;;;;;1.00;1.00;;;;;22.34;56.73;101276.94;6341200;22;45298;-76
2021/08/16 09:47:56;;;;;;;;;3.00;3.00;;;;;22.58;56.19;101299.13;6338600;22;45835;-78
2021/08/16 09:50:21;;;;;;;;;3.33;3.00;;;;;22.70;55.45;101294.16;6340694;22;45227;-76
2021/08/16 09:52:47;;;;;;;;;1.33;1.33;;;;;22.71;54.88;101277.97;6341277;22;45204;-76
2021/08/16 09:55:13;;;;;;;;;2.33;2.33;;;;;22.71;55.00;101277.97;6313054;22;45180;-77
2021/08/16 09:57:39;;;;;;;;;1.00;1.00;;;;;22.65;54.56;101297.91;6341241;22;45238;-76
2021/08/16 10:00:06;;;;;;;;;2.00;2.00;;;;;22.56;56.20;101308.19;6312892;22;47218;-77
2021/08/16 10:02:32;;;;;;;;;4.00;3.00;;;;;22.35;56.59;101300.16;6340697;22;45345;-78
2021/08/16 10:04:58;;;;;;;;;2.33;2.00;;;;;22.30;57.39;101304.84;6340889;22;45371;-78
2021/08/16 10:07:28;;;;;;;;;2.00;2.00;;;;;22.29;57.64;101303.09;6340890;22;45401;-78
2021/08/16 10:09:57;;;;;;;;;2.00;1.67;;;;;22.31;56.74;101300.34;6312341;22;47052;-77
2021/08/16 10:12:24;;;;;;;;;2.00;2.00;;;;;22.34;56.92;101309.13;6340447;22;45366;-78
2021/08/16 10:14:51;;;;;;;;;1.67;1.67;;;;;22.36;56.22;101309.94;6340731;22;45074;-78
2021/08/16 10:17:21;;;;;;;;;3.33;3.33;;;;;22.48;56.75;101316.59;6312221;22;45462;-78
2021/08/16 10:19:50;;;;;;;;;3.50;3.50;;;;;22.54;56.95;101310.09;6338427;22;47203;-78
2021/08/16 10:22:16;;;;;;;;;1.25;1.25;;;;;22.65;57.44;101311.34;6340833;22;45373;-78
2021/08/16 10:24:41;;;;;;;;;2.33;2.00;;;;;22.75;56.32;101319.84;6340521;22;45204;-78
2021/08/16 10:27:09;;;;;;;;;1.00;1.00;;;;;22.89;56.23;101321.91;6340706;22;45326;-77
2021/08/16 10:29:37;;;;;;;;;2.67;2.00;;;;;23.04;56.12;101312.28;6312215;22;47331;-77
2021/08/16 10:32:02;;;;;;;;;2.00;2.00;;;;;23.21;55.44;101331.19;6339941;22;45325;-77
2021/08/16 10:34:38;;;;;;;;;2.00;1.33;;;;;23.29;55.27;101328.13;6312284;22;45382;-77
2021/08/16 10:37:04;;;;;;;;;3.00;1.00;;;;;23.28;54.67;101335.34;6311681;22;45378;-77
2021/08/16 10:39:38;;;;;;;;;1.00;1.00;;;;;23.16;54.53;101338.59;6340435;22;45199;-78
2021/08/16 10:42:24;;;;;;;;;5.00;4.00;;;;;23.09;53.59;101338.00;6340653;22;45343;-77
2021/08/16 10:44:53;;;;;;;;;2.00;2.00;;;;;23.03;53.60;101343.66;6309615;22;45371;-77
2021/08/16 10:47:35;;;;;;;;;5.00;4.00;;;;;23.04;53.98;101341.81;6338015;22;45309;-78
2021/08/16 10:50:11;;;;;;;;;3.67;3.00;;;;;23.08;52.49;101347.00;6339983;22;45205;-77
2021/08/16 10:52:41;;;;;;;;;2.00;2.00;;;;;23.13;51.59;101356.66;6340076;22;45113;-77
2021/08/16 10:55:16;;;;;;;;;5.00;3.67;;;;;23.12;51.00;101361.13;6312266;22;45337;-77
2021/08/16 10:57:43;;;;;;;;;3.67;3.67;;;;;23.05;49.71;101355.19;6340300;22;45345;-77
2021/08/16 11:00:11;;;;;;;;;3.00;3.00;;;;;23.05;49.37;101375.81;6338257;22;47091;-76
2021/08/16 11:02:39;;;;;;;;;5.33;3.67;;;;;23.02;49.34;101382.19;6337946;22;45207;-77
2021/08/16 11:05:05;;;;;;;;;3.67;3.67;;;;;23.01;49.12;101375.06;6339873;22;45389;-77
2021/08/16 11:07:30;;;;;;;;;4.67;3.33;;;;;23.04;49.29;101372.28;6311859;22;45465;-76
2021/08/16 11:10:06;;;;;;;;;4.00;3.67;;;;;22.99;47.76;101370.69;6340151;22;45345;-79
2021/08/16 11:12:43;;;;;;;;;6.00;5.25;;;;;22.93;47.75;101373.66;6311870;22;45516;-78
2021/08/16 11:15:12;;;;;;;;;4.25;4.00;;;;;22.90;48.33;101386.25;6311529;22;45131;-78
2021/08/16 11:17:38;;;;;;;;;6.00;5.00;;;;;22.89;48.54;101376.47;6311686;22;45479;-77
2021/08/16 11:20:06;;;;;;;;;7.00;6.67;;;;;22.89;47.38;101394.41;6310986;22;46355;-77
2021/08/16 11:22:33;;;;;;;;;5.25;5.25;;;;;22.82;47.20;101393.78;6311892;22;45409;-77
2021/08/16 11:25:06;;;;;;;;;5.75;4.75;;;;;22.76;46.59;101396.75;6340310;22;45336;-77
2021/08/16 11:27:32;;;;;;;;;7.00;7.00;;;;;22.66;45.99;101406.16;6339957;22;45438;-79
2021/08/16 11:30:00;;;;;;;;;5.25;4.75;;;;;22.63;46.27;101401.78;6339642;22;45433;-78
2021/08/16 11:32:28;;;;;;;;;10.75;8.00;;;;;22.61;46.13;101406.38;6339941;22;45211;-76
2021/08/16 11:34:55;;;;;;;;;6.75;6.25;;;;;22.60;46.52;101396.56;6311683;22;45390;-76
2021/08/16 11:37:29;;;;;;;;;7.75;7.75;;;;;22.66;46.11;101407.00;6311616;22;45386;-76
2021/08/16 11:39:57;;;;;;;;;11.50;8.25;;;;;22.68;46.38;101406.97;6312469;22;46372;-79
2021/08/16 11:42:23;;;;;;;;;10.25;9.00;;;;;22.72;46.03;101397.84;6341513;22;45298;-77
2021/08/16 11:45:03;;;;;;;;;12.25;11.25;;;;;22.77;46.14;101398.50;6340783;22;45085;-77
2021/08/16 11:47:35;;;;;;;;;11.00;10.00;;;;;22.80;45.13;101406.44;6312797;22;45290;-77
2021/08/16 11:50:04;;;;;;;;;12.00;10.50;;;;;22.87;45.02;101410.56;6341526;22;45438;-78
2021/08/16 11:52:30;;;;;;;;;9.75;8.00;;;;;22.94;44.18;101410.31;6313538;22;45674;-77
2021/08/16 11:54:58;;;;;;;;;11.75;10.75;;;;;23.05;44.17;101416.09;6341345;22;45256;-77
2021/08/16 11:57:24;;;;;;;;;13.75;11.50;;;;;23.10;42.81;101406.03;6312833;22;45295;-77
2021/08/16 11:59:54;;;;;;;;;15.25;13.00;;;;;23.27;43.38;101413.31;6338972;22;46884;-77
2021/08/16 12:02:25;;;;;;;;;13.25;13.00;;;;;23.51;43.51;101406.78;6340425;22;45801;-77
2021/08/16 12:04:55;;;;;;;;;18.75;17.00;;;;;23.84;42.99;101410.66;6341878;22;45206;-77
2021/08/16 12:07:26;;;;;;;;;15.50;13.25;;;;;24.06;42.87;101413.16;6341603;22;45255;-78
2021/08/16 12:09:53;;;;;;;;;14.50;13.00;;;;;24.19;41.54;101414.28;6341289;22;45230;-78
2021/08/16 12:12:20;;;;;;;;;17.25;15.50;;;;;24.31;40.94;101413.69;6341626;22;45168;-78
2021/08/16 12:14:46;;;;;;;;;16.25;14.50;;;;;24.38;40.52;101419.63;6341495;22;45425;-77
2021/08/16 12:17:24;;;;;;;;;21.50;16.00;;;;;24.29;40.18;101422.78;6341147;22;45245;-78
2021/08/16 12:20:08;;;;;;;;;15.25;13.00;;;;;24.34;40.05;101432.38;6341519;22;45981;-78
2021/08/16 12:22:57;;;;;;;;;15.75;15.50;;;;;24.62;40.02;101425.63;6339633;22;45301;-78
2021/08/16 12:25:24;;;;;;;;;16.75;16.50;;;;;24.93;39.30;101427.56;6341790;22;45227;-77
2021/08/16 12:27:56;;;;;;;;;20.00;17.50;;;;;25.02;39.23;101427.09;6341513;22;45416;-77
2021/08/16 12:30:23;;;;;;;;;16.75;16.00;;;;;25.19;38.41;101420.81;6341351;22;45411;-77
2021/08/16 12:32:49;;;;;;;;;21.50;19.25;;;;;25.36;36.77;101429.81;6312868;22;45275;-77
2021/08/16 12:35:17;;;;;;;;;22.00;19.50;;;;;25.44;37.42;101438.34;6312687;22;45385;-77
2021/08/16 12:37:43;;;;;;;;;22.50;20.00;;;;;25.24;37.39;101437.63;6341439;22;45463;-77
2021/08/16 12:40:13;;;;;;;;;18.75;18.50;;;;;24.99;37.24;101446.13;6341164;22;46193;-77
2021/08/16 12:42:43;;;;;;;;;25.00;23.00;;;;;24.79;37.83;101454.38;6312845;22;45513;-77
2021/08/16 12:45:12;;;;;;;;;22.25;20.50;;;;;24.73;37.64;101441.22;6340614;22;45129;-77
2021/08/16 12:47:38;;;;;;;;;26.00;23.00;;;;;24.76;37.53;101450.00;6340748;22;45342;-77
2021/08/16 12:50:07;;;;;;;;;24.00;22.00;;;;;24.98;36.29;101447.06;6312273;22;46128;-79
2021/08/16 12:52:33;;;;;;;;;25.00;22.75;;;;;25.15;37.07;101437.19;6341297;22;45354;-76
2021/08/16 12:54:59;;;;;;;;;24.50;20.50;;;;;25.18;37.57;101451.44;6341631;22;45329;-77
2021/08/16 12:57:24;;;;;;;;;25.50;23.75;;;;;25.26;37.02;101459.97;6340061;22;45375;-77
2021/08/16 12:59:50;;;;;;;;;25.50;23.50;;;;;25.27;36.42;101460.84;6313244;22;47009;-77
2021/08/16 13:02:24;;;;;;;;;22.25;21.25;;;;;25.19;36.83;101460.38;6341554;22;45174;-77
2021/08/16 13:04:51;;;;;;;;;22.25;22.25;;;;;25.11;36.49;101465.28;6341141;22;45261;-77
2021/08/16 13:07:16;;;;;;;;;21.50;19.00;;;;;25.11;36.12;101459.88;6313255;22;45393;-77
2021/08/16 13:09:41;;;;;;;;;25.75;22.00;;;;;25.18;36.17;101455.91;6341646;22;45938;-77
2021/08/16 13:12:07;;;;;;;;;26.50;23.50;;;;;25.32;36.70;101461.47;6313200;22;45591;-76
2021/08/16 13:14:32;;;;;;;;;27.50;27.00;;;;;25.40;36.56;101461.06;6313239;22;45264;-76
2021/08/16 13:16:58;;;;;;;;;21.25;19.00;;;;;25.71;36.15;101468.31;6341282;22;45146;-76
2021/08/16 13:19:23;;;;;;;;;22.50;21.00;;;;;25.88;36.01;101456.63;6341139;22;45337;-76
2021/08/16 13:21:49;;;;;;;;;21.75;20.00;;;;;26.06;36.00;101457.38;6312899;22;45300;-78
2021/08/16 13:24:14;;;;;;;;;29.25;22.50;;;;;26.34;35.51;101468.31;6341311;22;45432;-76
2021/08/16 13:26:40;;;;;;;;;26.50;25.75;;;;;26.54;33.78;101472.59;6341040;22;45249;-76
2021/08/16 13:29:05;;;;;;;;;22.75;22.00;;;;;26.58;33.41;101467.88;6341012;22;46156;-77
2021/08/16 13:31:31;;;;;;;;;27.25;25.00;;;;;26.71;34.06;101478.84;6341047;22;45409;-77
2021/08/16 13:33:59;;;;;;;;;28.75;26.50;;;;;27.01;33.53;101486.91;6341214;22;45302;-77
2021/08/16 13:36:25;;;;;;;;;25.50;22.25;;;;;27.02;32.24;101486.84;6340744;22;45147;-77
2021/08/16 13:38:51;;;;;;;;;22.00;20.75;;;;;27.17;32.26;101470.66;6340642;22;45172;-77
2021/08/16 13:41:16;;;;;;;;;23.25;22.25;;;;;27.25;31.44;101471.91;6340893;22;45172;-77
2021/08/16 13:43:42;;;;;;;;;27.50;23.75;;;;;27.19;32.17;101483.13;6340687;22;45420;-80
2021/08/16 13:46:07;;;;;;;;;26.50;24.50;;;;;27.11;32.09;101474.56;6341207;22;45160;-78
2021/08/16 13:48:32;;;;;;;;;20.25;20.00;;;;;27.04;32.32;101484.88;6338344;22;46401;-77
2021/08/16 13:50:58;;;;;;;;;23.00;21.00;;;;;26.93;31.93;101500.88;6338417;22;45177;-78
2021/08/16 13:53:23;;;;;;;;;24.50;21.25;;;;;26.72;32.11;101483.25;6312307;22;45593;-77
2021/08/16 13:55:48;;;;;;;;;25.50;23.75;;;;;26.62;32.30;101496.44;6312673;22;45402;-77
2021/08/16 13:58:16;;;;;;;;;25.00;22.75;;;;;26.75;32.73;101492.03;6312252;22;48080;-77
2021/08/16 14:00:42;;;;;;;;;20.25;19.25;;;;;26.90;31.96;101494.81;6340272;22;45326;-77
2021/08/16 14:03:07;;;;;;;;;27.50;24.00;;;;;26.84;32.12;101506.84;6340544;22;45262;-77
2021/08/16 14:05:33;;;;;;;;;25.00;21.00;;;;;26.72;32.18;101494.94;6340204;22;45353;-78
2021/08/16 14:07:58;;;;;;;;;24.75;23.00;;;;;26.73;32.19;101485.88;6340569;22;45279;-78
2021/08/16 14:10:24;;;;;;;;;26.50;23.75;;;;;26.69;32.77;101502.34;6340868;22;45345;-77
2021/08/16 14:12:49;;;;;;;;;28.50;27.25;;;;;26.55;32.36;101500.47;6340868;22;45149;-77
2021/08/16 14:15:15;;;;;;;;;26.00;21.50;;;;;26.44;32.25;101508.28;6312118;22;45310;-78
2021/08/16 14:17:40;;;;;;;;;19.25;19.00;;;;;26.27;32.81;101517.38;6311861;22;46932;-77
2021/08/16 14:20:07;;;;;;;;;24.50;23.00;;;;;25.93;33.43;101516.59;6340391;22;45191;-77
2021/08/16 14:22:34;;;;;;;;;33.25;27.50;;;;;25.80;33.91;101507.41;6312793;22;45256;-77
2021/08/16 14:24:59;;;;;;;;;24.75;24.00;;;;;26.01;34.25;101519.72;6311701;22;45472;-77
2021/08/16 14:27:25;;;;;;;;;26.50;25.25;;;;;26.33;34.08;101511.59;6338357;22;47424;-77
2021/08/16 14:29:50;;;;;;;;;23.25;21.25;;;;;26.63;33.67;101521.66;6311733;22;45332;-77
2021/08/16 14:32:16;;;;;;;;;26.75;25.50;;;;;26.63;32.59;101513.53;6340416;22;45209;-77
2021/08/16 14:34:41;;;;;;;;;32.50;29.75;;;;;26.46;33.19;101517.16;6340657;22;45230;-77
2021/08/16 14:37:06;;;;;;;;;29.25;25.25;;;;;26.30;33.48;101522.59;6337955;22;46991;-77
2021/08/16 14:39:32;;;;;;;;;25.25;24.75;;;;;26.15;32.89;101522.50;6311966;22;45648;-77
2021/08/16 14:42:01;;;;;;;;;23.50;23.50;;;;;26.17;33.59;101522.44;6338692;22;45371;-77
2021/08/16 14:44:27;;;;;;;;;27.00;26.25;;;;;26.43;33.44;101518.22;6312022;22;45182;-78
2021/08/16 14:46:52;;;;;;;;;24.75;23.75;;;;;26.60;32.97;101525.41;6340116;22;46428;-77
2021/08/16 14:49:18;;;;;;;;;21.75;20.50;;;;;26.82;33.11;101520.44;6338022;22;45158;-76
2021/08/16 14:51:43;;;;;;;;;23.50;22.00;;;;;26.83;32.36;101513.22;6340349;22;45477;-78
2021/08/16 14:54:11;;;;;;;;;26.50;24.75;;;;;26.70;32.44;101523.00;6340700;22;45127;-78
2021/08/16 14:56:36;;;;;;;;;33.50;29.50;;;;;26.60;32.84;101530.78;6340168;22;46407;-77
2021/08/16 14:59:02;;;;;;;;;27.00;23.75;;;;;26.53;32.65;101541.06;6340708;22;45437;-77
2021/08/16 15:01:29;;;;;;;;;24.50;20.00;;;;;26.44;32.77;101544.28;6340219;22;45291;-77
2021/08/16 15:03:55;;;;;;;;;25.75;23.25;;;;;26.26;32.29;101546.19;6340181;22;45252;-77
2021/08/16 15:06:20;;;;;;;;;27.00;24.25;;;;;26.05;32.80;101548.28;6310990;22;47754;-78
2021/08/16 15:08:46;;;;;;;;;20.00;18.75;;;;;25.90;32.88;101543.72;6312258;22;45121;-77
2021/08/16 15:11:12;;;;;;;;;27.75;25.00;;;;;25.72;32.89;101538.38;6340172;22;45234;-78
2021/08/16 15:13:39;;;;;;;;;22.00;17.75;;;;;25.69;33.56;101543.06;6340490;22;45160;-77
2021/08/16 15:16:05;;;;;;;;;29.50;25.50;;;;;25.64;33.23;101543.31;6339907;22;46374;-77
2021/08/16 15:18:33;;;;;;;;;26.25;24.25;;;;;25.57;33.10;101551.81;6311947;22;45389;-78
2021/08/16 15:20:59;;;;;;;;;31.25;27.50;;;;;25.46;33.13;101549.69;6339335;22;45199;-77
2021/08/16 15:23:25;;;;;;;;;25.50;23.75;;;;;25.46;33.62;101557.78;6311875;22;46075;-78
2021/08/16 15:25:51;;;;;;;;;23.50;23.50;;;;;25.35;33.55;101566.44;6340139;22;46307;-78
2021/08/16 15:28:16;;;;;;;;;28.75;24.50;;;;;25.08;33.96;101550.72;6340221;22;45470;-78
2021/08/16 15:30:42;;;;;;;;;31.00;27.50;;;;;24.86;34.09;101559.03;6311701;22;45208;-77
2021/08/16 15:33:08;;;;;;;;;24.75;23.25;;;;;24.67;34.78;101560.88;6337901;22;45563;-77
2021/08/16 15:35:35;;;;;;;;;30.25;23.75;;;;;24.57;34.72;101573.94;6339515;22;46413;-78
2021/08/16 15:38:00;;;;;;;;;26.00;25.00;;;;;24.56;35.03;101571.31;6337125;22;45304;-77
2021/08/16 15:40:26;;;;;;;;;25.25;22.50;;;;;24.52;34.88;101564.34;6311452;22;45377;-77
2021/08/16 15:42:52;;;;;;;;;25.50;20.00;;;;;25.48;34.49;101580.16;6311285;22;45599;-77
2021/08/16 15:45:18;;;;;;;;;32.25;29.00;;;;;26.28;33.50;101575.81;6311443;22;47118;-76
2021/08/16 15:47:44;;;;;;;;;22.75;21.50;;;;;26.27;32.33;101574.06;6339788;22;45281;-76
2021/08/16 15:50:10;;;;;;;;;27.50;24.00;;;;;26.61;32.88;101575.75;6311434;22;45163;-76
2021/08/16 15:52:38;;;;;;;;;23.25;21.25;;;;;27.45;32.00;101573.47;6339817;22;45252;-78
2021/08/16 15:55:05;;;;;;;;;22.25;19.50;;;;;29.00;31.19;101563.47;6339363;22;45273;-76
2021/08/16 15:57:31;;;;;;;;;22.50;19.75;;;;;30.85;27.13;101561.09;6311281;22;45287;-79
2021/08/16 15:59:56;;;;;;;;;19.50;18.75;;;;;31.30;27.04;101570.31;6311826;22;45361;-79
2021/08/16 16:02:24;;;;;;;;;24.50;23.00;;;;;30.62;27.26;101569.13;6339705;22;45193;-77
2021/08/16 16:04:50;;;;;;;;;21.50;21.50;;;;;30.25;27.33;101566.44;6338864;22;45339;-76
2021/08/16 16:07:15;;;;;;;;;21.00;18.50;;;;;30.82;27.94;101574.94;6311039;22;45419;-76
2021/08/16 16:09:41;;;;;;;;;21.50;18.75;;;;;30.91;27.00;101566.09;6337882;22;45224;-76
2021/08/16 16:12:07;;;;;;;;;20.75;19.75;;;;;30.36;27.01;101581.09;6339906;22;45152;-76
2021/08/16 16:14:33;;;;;;;;;20.50;19.00;;;;;30.01;26.80;101582.66;6339690;22;45229;-77
2021/08/16 16:16:59;;;;;;;;;21.75;19.00;;;;;29.53;27.61;101570.72;6339547;22;45445;-76
2021/08/16 16:19:24;;;;;;;;;22.25;21.50;;;;;29.36;27.88;101558.34;6312536;22;45324;-76
2021/08/16 16:21:50;;;;;;;;;21.25;18.75;;;;;30.17;27.77;101562.53;6312654;22;45295;-76
2021/08/16 16:24:15;;;;;;;;;18.25;16.00;;;;;30.53;26.73;101569.84;6312911;22;48161;-77
2021/08/16 16:26:41;;;;;;;;;18.75;18.00;;;;;29.88;27.15;101565.50;6341839;22;45354;-76
2021/08/16 16:29:06;;;;;;;;;17.50;14.75;;;;;29.31;27.82;101571.34;6342274;22;45180;-76
2021/08/16 16:31:33;;;;;;;;;24.25;22.25;;;;;28.86;28.21;101574.34;6342081;22;45556;-76
2021/08/16 16:33:58;;;;;;;;;20.25;19.50;;;;;28.47;28.31;101564.34;6342096;22;45353;-76
2021/08/16 16:36:24;;;;;;;;;20.25;18.50;;;;;28.01;29.02;101589.81;6341431;22;45341;-77
2021/08/16 16:38:50;;;;;;;;;20.25;19.25;;;;;27.46;29.29;101575.19;6341524;22;45230;-76
2021/08/16 16:41:15;;;;;;;;;24.00;22.00;;;;;27.03;29.76;101585.88;6340645;22;45129;-79
2021/08/16 16:43:42;;;;;;;;;24.75;21.00;;;;;26.74;30.34;101592.13;6312349;22;48131;-76
2021/08/16 16:46:08;;;;;;;;;26.25;23.50;;;;;26.44;30.43;101582.09;6341170;22;45268;-76
2021/08/16 16:48:36;;;;;;;;;25.25;25.00;;;;;26.29;31.00;101594.63;6340938;22;45182;-79
2021/08/16 16:51:01;;;;;;;;;24.00;22.75;;;;;27.26;31.06;101592.66;6340250;22;45296;-77
2021/08/16 16:53:26;;;;;;;;;24.25;19.50;;;;;28.24;28.94;101584.78;6340029;22;45952;-76
2021/08/16 16:55:54;;;;;;;;;20.75;19.50;;;;;28.15;28.84;101586.25;6312289;22;45335;-76